createdAt,value
2022-10-18T00:01:04.979Z,11.30
2022-10-18T00:03:33.296Z,11.30
2022-10-18T00:06:01.284Z,11.30
2022-10-18T00:08:29.243Z,11.40
2022-10-18T00:10:56.754Z,11.50
2022-10-18T00:13:24.389Z,11.50
2022-10-18T00:15:57.187Z,11.60
2022-10-18T00:18:24.614Z,11.60
2022-10-18T00:21:15.723Z,11.60
2022-10-18T00:23:43.610Z,11.60
2022-10-18T00:26:22.805Z,11.70
2022-10-18T00:29:03.241Z,11.80
2022-10-18T00:31:33.597Z,11.80
2022-10-18T00:34:03.864Z,11.80
2022-10-18T00:36:34.326Z,11.80
2022-10-18T00:39:03.712Z,11.90
2022-10-18T00:41:32.659Z,12.00
2022-10-18T00:44:04.184Z,12.00
2022-10-18T00:46:37.408Z,12.10
2022-10-18T00:49:11.737Z,12.10
2022-10-18T00:51:48.083Z,12.20
2022-10-18T00:54:17.119Z,12.20
2022-10-18T00:56:45.524Z,12.20
2022-10-18T00:59:15.540Z,12.20
2022-10-18T01:01:43.345Z,12.30
2022-10-18T01:04:11.515Z,12.30
2022-10-18T01:06:49.715Z,12.40
2022-10-18T01:09:55.851Z,12.40
2022-10-18T01:12:26.022Z,12.50
2022-10-18T01:14:56.651Z,12.50
2022-10-18T01:17:33.299Z,12.60
2022-10-18T01:20:33.952Z,12.70
2022-10-18T01:23:26.000Z,12.80
2022-10-18T01:26:23.870Z,12.90
2022-10-18T01:29:22.960Z,12.90
2022-10-18T01:32:14.345Z,12.90
2022-10-18T01:34:46.121Z,12.90
2022-10-18T01:37:17.993Z,13.00
2022-10-18T01:39:48.056Z,13.00
2022-10-18T01:42:19.201Z,13.00
2022-10-18T01:44:48.401Z,13.00
2022-10-18T01:47:19.824Z,13.00
2022-10-18T01:49:47.282Z,13.00
2022-10-18T01:52:16.324Z,13.10
2022-10-18T01:54:50.546Z,13.10
2022-10-18T01:57:32.565Z,13.10
2022-10-18T02:00:13.892Z,13.20
2022-10-18T02:02:59.678Z,13.10
2022-10-18T02:05:50.204Z,13.20
2022-10-18T02:08:52.536Z,13.20
2022-10-18T02:11:20.626Z,13.30
2022-10-18T02:14:10.411Z,13.30
2022-10-18T02:17:08.899Z,13.30
2022-10-18T02:19:43.493Z,13.40
2022-10-18T02:22:15.933Z,13.40
2022-10-18T02:24:47.679Z,13.40
2022-10-18T02:27:15.419Z,13.40
2022-10-18T02:29:43.927Z,13.50
2022-10-18T02:32:38.582Z,13.50
2022-10-18T02:35:18.521Z,13.50
2022-10-18T02:37:47.981Z,13.50
2022-10-18T02:40:16.466Z,13.60
2022-10-18T02:42:53.935Z,13.70
2022-10-18T02:45:23.763Z,13.90
2022-10-18T02:47:51.470Z,13.90
2022-10-18T02:50:19.382Z,13.90
2022-10-18T02:52:46.540Z,14.00
2022-10-18T02:55:14.393Z,14.00
2022-10-18T02:57:41.562Z,14.00
2022-10-18T03:00:09.624Z,14.00
2022-10-18T03:02:36.800Z,14.10
2022-10-18T03:05:05.037Z,14.10
2022-10-18T03:07:32.463Z,14.20
2022-10-18T03:09:59.874Z,14.10
2022-10-18T03:12:27.103Z,14.20
2022-10-18T03:14:54.363Z,14.20
2022-10-18T03:17:21.552Z,14.30
2022-10-18T03:19:48.748Z,14.20
2022-10-18T03:22:15.943Z,14.30
2022-10-18T03:24:43.231Z,14.30
2022-10-18T03:27:10.397Z,14.30
2022-10-18T03:29:37.563Z,14.30
2022-10-18T03:32:04.869Z,14.40
2022-10-18T03:34:32.231Z,14.40
2022-10-18T03:37:03.405Z,14.30
2022-10-18T03:39:33.129Z,14.40
2022-10-18T03:42:00.375Z,14.40
2022-10-18T03:44:27.742Z,14.30
2022-10-18T03:46:55.019Z,14.30
2022-10-18T03:49:22.319Z,14.30
2022-10-18T03:51:49.513Z,14.30
2022-10-18T03:54:16.992Z,14.20
2022-10-18T03:56:44.225Z,14.20
2022-10-18T03:59:11.436Z,14.20
2022-10-18T04:01:38.690Z,14.10
2022-10-18T04:04:08.300Z,14.10
2022-10-18T04:06:35.564Z,14.10
2022-10-18T04:09:04.283Z,14.00
2022-10-18T04:11:34.223Z,14.00
2022-10-18T04:14:01.476Z,13.90
2022-10-18T04:16:28.806Z,13.90
2022-10-18T04:18:56.005Z,13.90
2022-10-18T04:21:23.428Z,13.90
2022-10-18T04:23:51.485Z,13.90
2022-10-18T04:26:18.816Z,13.90
2022-10-18T04:28:46.139Z,13.80
2022-10-18T04:31:13.549Z,13.80
2022-10-18T04:33:40.865Z,13.80
2022-10-18T04:36:08.218Z,13.70
2022-10-18T04:38:35.739Z,13.70
2022-10-18T04:41:03.485Z,13.70
2022-10-18T04:43:30.903Z,13.70
2022-10-18T04:45:58.545Z,13.70
2022-10-18T04:48:26.524Z,13.70
2022-10-18T04:50:53.966Z,13.70
2022-10-18T04:53:21.281Z,13.70
2022-10-18T04:55:49.608Z,13.70
2022-10-18T04:58:17.829Z,13.70
2022-10-18T05:00:46.078Z,13.70
2022-10-18T05:03:13.994Z,13.70
2022-10-18T05:06:00.879Z,13.70
2022-10-18T05:08:33.014Z,13.70
2022-10-18T05:11:02.824Z,13.70
2022-10-18T05:13:31.130Z,13.70
2022-10-18T05:16:00.376Z,13.70
2022-10-18T05:18:27.749Z,13.70
2022-10-18T05:20:55.034Z,13.70
2022-10-18T05:23:22.498Z,13.70
2022-10-18T05:25:49.956Z,13.70
2022-10-18T05:31:07.186Z,13.80
2022-10-18T05:33:35.054Z,13.70
2022-10-18T05:36:02.462Z,13.70
2022-10-18T05:38:32.480Z,13.80
2022-10-18T05:41:03.657Z,13.70
2022-10-18T05:43:31.141Z,13.70
2022-10-18T05:45:58.463Z,13.70
2022-10-18T05:48:28.802Z,13.70
2022-10-18T05:50:59.924Z,13.70
2022-10-18T05:53:42.939Z,13.80
2022-10-18T05:56:12.112Z,13.70
2022-10-18T05:58:40.179Z,13.70
2022-10-18T06:01:08.641Z,13.70
2022-10-18T06:03:36.262Z,13.70
2022-10-18T06:06:10.290Z,13.70
2022-10-18T06:08:38.546Z,13.70
2022-10-18T06:11:14.590Z,13.70
2022-10-18T06:13:46.891Z,13.70
2022-10-18T06:16:16.778Z,13.80
2022-10-18T06:18:50.641Z,13.80
2022-10-18T06:21:19.261Z,13.80
2022-10-18T06:23:50.329Z,13.70
2022-10-18T06:26:17.817Z,13.80
2022-10-18T06:28:47.397Z,13.80
2022-10-18T06:31:16.214Z,13.80
2022-10-18T06:33:43.648Z,13.80
2022-10-18T06:36:14.127Z,13.80
2022-10-18T06:38:41.829Z,13.80
2022-10-18T06:41:09.593Z,13.80
2022-10-18T06:43:37.377Z,13.80
2022-10-18T06:46:07.043Z,13.80
2022-10-18T06:48:39.273Z,13.80
2022-10-18T06:51:08.089Z,13.80
2022-10-18T06:53:43.941Z,13.90
2022-10-18T06:56:21.569Z,13.80
2022-10-18T06:58:49.091Z,13.90
2022-10-18T07:01:17.906Z,13.90
2022-10-18T07:03:47.454Z,13.90
2022-10-18T07:06:17.003Z,14.00
2022-10-18T07:08:44.782Z,14.00
2022-10-18T07:11:17.941Z,14.00
2022-10-18T07:13:45.493Z,14.00
2022-10-18T07:16:18.725Z,14.00
2022-10-18T07:18:49.969Z,14.10
2022-10-18T07:21:19.796Z,14.10
2022-10-18T07:23:47.979Z,14.10
2022-10-18T07:26:27.390Z,14.20
2022-10-18T07:28:58.057Z,14.20
2022-10-18T07:31:25.674Z,14.20
2022-10-18T07:33:53.565Z,14.20
2022-10-18T07:36:22.260Z,14.30
2022-10-18T07:38:50.253Z,14.30
2022-10-18T07:41:17.639Z,14.30
2022-10-18T07:43:46.973Z,14.30
2022-10-18T07:46:15.564Z,14.40
2022-10-18T07:48:43.242Z,14.50
2022-10-18T07:51:11.547Z,14.50
2022-10-18T07:53:38.885Z,14.50
2022-10-18T07:56:16.256Z,14.60
2022-10-18T07:58:45.678Z,14.80
2022-10-18T08:01:14.489Z,15.00
2022-10-18T08:03:42.838Z,15.00
2022-10-18T08:06:12.504Z,15.10
2022-10-18T08:08:41.058Z,15.10
2022-10-18T08:11:15.111Z,15.90
2022-10-18T08:13:43.629Z,16.60
2022-10-18T08:16:13.762Z,17.40
2022-10-18T08:18:41.326Z,18.00
2022-10-18T08:21:10.422Z,18.50
2022-10-18T08:23:38.339Z,18.70
2022-10-18T08:26:11.886Z,18.20
2022-10-18T08:28:40.502Z,18.40
2022-10-18T08:31:17.445Z,18.60
2022-10-18T08:33:45.635Z,19.10
2022-10-18T08:36:15.161Z,19.70
2022-10-18T08:38:44.238Z,19.80
2022-10-18T08:41:42.261Z,19.20
2022-10-18T08:44:28.873Z,18.80
2022-10-18T08:47:04.485Z,18.20
2022-10-18T08:49:38.334Z,18.40
2022-10-18T08:52:16.462Z,18.50
2022-10-18T08:54:55.821Z,18.70
2022-10-18T08:57:26.063Z,18.90
2022-10-18T08:59:53.514Z,18.80
2022-10-18T09:02:33.553Z,18.90
2022-10-18T09:05:31.203Z,18.50
2022-10-18T09:08:23.291Z,18.30
2022-10-18T09:11:00.338Z,18.40
2022-10-18T09:13:30.721Z,18.50
2022-10-18T09:16:15.379Z,18.50
2022-10-18T09:18:42.782Z,18.20
2022-10-18T09:21:39.673Z,18.10
2022-10-18T09:24:18.659Z,18.30
2022-10-18T09:26:49.493Z,18.70
2022-10-18T09:29:36.534Z,18.90
2022-10-18T09:32:32.456Z,19.00
2022-10-18T09:35:17.967Z,19.10
2022-10-18T09:37:45.788Z,19.30
2022-10-18T09:40:23.336Z,19.40
2022-10-18T09:42:57.017Z,19.50
2022-10-18T09:45:45.026Z,19.60
2022-10-18T09:48:16.386Z,19.50
2022-10-18T09:51:03.812Z,19.10
2022-10-18T09:53:40.019Z,19.00
2022-10-18T09:56:31.259Z,19.30
2022-10-18T09:58:58.788Z,19.40
2022-10-18T10:01:31.060Z,19.10
2022-10-18T10:03:58.480Z,18.70
2022-10-18T10:06:29.015Z,18.20
2022-10-18T10:09:05.640Z,17.80
2022-10-18T10:11:40.388Z,17.40
2022-10-18T10:16:55.544Z,17.80
2022-10-18T10:19:33.726Z,17.50
2022-10-18T10:22:10.906Z,17.70
2022-10-18T10:24:50.122Z,17.70
2022-10-18T10:27:34.046Z,18.30
2022-10-18T10:30:21.192Z,19.20
2022-10-18T10:32:53.123Z,19.50
2022-10-18T10:35:52.952Z,20.00
2022-10-18T10:38:27.552Z,20.10
2022-10-18T10:40:56.324Z,20.50
2022-10-18T10:43:39.927Z,21.00
2022-10-18T10:46:13.268Z,20.90
2022-10-18T10:49:21.055Z,21.50
2022-10-18T10:52:02.462Z,21.70
2022-10-18T10:54:50.407Z,21.90
2022-10-18T10:57:26.175Z,22.20
2022-10-18T10:59:59.934Z,22.80
2022-10-18T11:02:37.825Z,23.20
2022-10-18T11:05:24.171Z,23.60
2022-10-18T11:07:55.640Z,23.30
2022-10-18T11:10:29.616Z,23.20
2022-10-18T11:13:29.894Z,22.60
2022-10-18T11:16:09.116Z,22.70
2022-10-18T11:18:38.276Z,23.30
2022-10-18T11:21:16.849Z,22.90
2022-10-18T11:23:46.810Z,22.50
2022-10-18T11:26:42.843Z,22.60
2022-10-18T11:29:22.705Z,22.10
2022-10-18T11:31:59.941Z,22.20
2022-10-18T11:34:42.383Z,21.90
2022-10-18T11:37:39.389Z,21.30
2022-10-18T11:40:30.185Z,20.30
2022-10-18T11:43:00.377Z,19.60
2022-10-18T11:45:48.320Z,19.40
2022-10-18T11:48:34.584Z,19.60
2022-10-18T11:52:06.843Z,19.30
2022-10-18T11:54:58.849Z,18.90
2022-10-18T11:58:11.279Z,18.30
2022-10-18T12:00:46.039Z,18.20
2022-10-18T12:03:50.122Z,17.90
2022-10-18T12:06:25.169Z,17.90
2022-10-18T12:09:01.900Z,17.50
2022-10-18T12:11:47.457Z,17.40
2022-10-18T12:14:38.609Z,17.10
2022-10-18T12:17:40.660Z,17.00
2022-10-18T12:20:27.610Z,16.90
2022-10-18T12:23:16.406Z,16.90
2022-10-18T12:25:50.063Z,16.80
2022-10-18T12:28:25.944Z,16.80
2022-10-18T12:31:20.925Z,16.70
2022-10-18T12:33:55.729Z,16.70
2022-10-18T12:36:35.910Z,16.70
2022-10-18T12:39:09.216Z,16.50
2022-10-18T12:41:37.208Z,16.70
2022-10-18T12:44:34.490Z,17.00
2022-10-18T12:47:04.844Z,17.10
2022-10-18T12:49:40.156Z,17.10
2022-10-18T12:52:29.026Z,17.20
2022-10-18T12:55:16.792Z,17.30
2022-10-18T12:57:54.224Z,17.30
2022-10-18T13:00:33.253Z,17.20
2022-10-18T13:03:09.399Z,17.50
2022-10-18T13:05:53.515Z,17.40
2022-10-18T13:08:30.553Z,17.20
2022-10-18T13:11:29.316Z,17.10
2022-10-18T13:14:21.377Z,17.00
2022-10-18T13:17:12.413Z,16.70
2022-10-18T13:20:24.965Z,16.30
2022-10-18T13:23:30.083Z,16.00
2022-10-18T13:26:17.928Z,15.80
2022-10-18T13:29:19.165Z,15.70
2022-10-18T13:32:01.696Z,15.50
2022-10-18T13:34:35.087Z,15.30
2022-10-18T13:37:04.292Z,15.10
2022-10-18T13:39:33.333Z,15.00
2022-10-18T13:42:00.881Z,15.00
2022-10-18T13:44:40.402Z,14.90
2022-10-18T13:47:08.695Z,14.80
2022-10-18T13:50:14.298Z,14.70
2022-10-18T13:53:20.913Z,14.60
2022-10-18T13:55:57.829Z,14.60
2022-10-18T13:58:31.304Z,14.60
2022-10-18T14:01:32.025Z,14.60
2022-10-18T14:04:27.363Z,14.40
2022-10-18T14:07:02.387Z,14.20
2022-10-18T14:09:45.182Z,14.30
2022-10-18T14:12:40.385Z,14.10
2022-10-18T14:15:23.382Z,14.00
2022-10-18T14:17:59.836Z,14.00
2022-10-18T14:20:55.167Z,13.90
2022-10-18T14:23:33.121Z,13.90
2022-10-18T14:26:08.254Z,13.80
2022-10-18T14:28:55.210Z,13.60
2022-10-18T14:31:23.516Z,13.70
2022-10-18T14:33:57.967Z,13.60
2022-10-18T14:36:41.032Z,13.50
2022-10-18T14:39:26.767Z,13.50
2022-10-18T14:41:57.283Z,13.40
2022-10-18T14:44:32.333Z,13.20
2022-10-18T14:47:31.452Z,13.20
2022-10-18T14:49:59.187Z,13.20
2022-10-18T14:52:35.444Z,13.10
2022-10-18T14:55:03.873Z,13.10
2022-10-18T14:57:36.926Z,13.00
2022-10-18T15:00:39.372Z,13.00
2022-10-18T15:03:11.172Z,13.00
2022-10-18T15:05:52.435Z,13.00
2022-10-18T15:08:20.725Z,13.00
2022-10-18T15:10:48.750Z,13.00
2022-10-18T15:13:19.875Z,13.00
2022-10-18T15:15:47.660Z,13.00
2022-10-18T15:18:24.339Z,13.00
2022-10-18T15:21:30.855Z,13.10
2022-10-18T15:24:27.761Z,13.00
2022-10-18T15:26:59.866Z,12.90
2022-10-18T15:29:32.844Z,12.90
2022-10-18T15:32:08.308Z,12.80
2022-10-18T15:34:36.092Z,12.80
2022-10-18T15:37:30.340Z,12.90
2022-10-18T15:40:22.919Z,12.90
2022-10-18T15:42:52.414Z,12.80
2022-10-18T15:45:25.430Z,12.70
2022-10-18T15:48:02.083Z,12.60
2022-10-18T15:50:48.966Z,12.60
2022-10-18T15:53:29.359Z,12.50
2022-10-18T15:56:05.247Z,12.40
2022-10-18T15:58:49.102Z,12.20
2022-10-18T16:01:18.107Z,12.20
2022-10-18T16:03:47.339Z,12.10
2022-10-18T16:06:18.170Z,12.00
2022-10-18T16:08:48.973Z,12.00
2022-10-18T16:11:18.262Z,11.90
2022-10-18T16:13:45.984Z,11.90
2022-10-18T16:16:20.541Z,12.00
2022-10-18T16:18:48.088Z,12.10
2022-10-18T16:21:33.077Z,12.10
2022-10-18T16:24:01.162Z,12.20
2022-10-18T16:26:28.780Z,12.20
2022-10-18T16:28:57.448Z,12.20
2022-10-18T16:31:30.827Z,12.20
2022-10-18T16:33:59.046Z,12.20
2022-10-18T16:36:31.652Z,12.20
2022-10-18T16:39:01.640Z,12.10
2022-10-18T16:41:29.344Z,12.10
2022-10-18T16:43:56.619Z,12.10
2022-10-18T16:46:27.656Z,12.10
2022-10-18T16:48:55.951Z,12.20
2022-10-18T16:51:23.724Z,12.20
2022-10-18T16:53:53.475Z,12.10
2022-10-18T16:56:28.201Z,12.10
2022-10-18T16:58:55.558Z,12.20
2022-10-18T17:01:23.858Z,12.10
2022-10-18T17:03:52.417Z,12.10
2022-10-18T17:06:27.103Z,12.00
2022-10-18T17:08:56.247Z,12.00
2022-10-18T17:11:27.069Z,12.00
2022-10-18T17:13:55.254Z,12.00
2022-10-18T17:16:24.522Z,12.00
2022-10-18T17:18:51.974Z,12.00
2022-10-18T17:21:19.817Z,11.90
2022-10-18T17:23:47.400Z,11.90
2022-10-18T17:26:34.292Z,11.90
2022-10-18T17:29:05.988Z,11.90
2022-10-18T17:31:37.034Z,11.70
2022-10-18T17:34:04.765Z,11.80
2022-10-18T17:36:33.376Z,11.70
2022-10-18T17:39:01.688Z,11.60
2022-10-18T17:41:30.119Z,11.60
2022-10-18T17:43:57.554Z,11.50
2022-10-18T17:46:24.905Z,11.50
2022-10-18T17:48:53.292Z,11.40
2022-10-18T17:51:20.648Z,11.30
2022-10-18T17:53:48.078Z,11.30
2022-10-18T17:56:16.211Z,11.30
2022-10-18T17:58:43.772Z,11.30
2022-10-18T18:01:18.023Z,11.20
2022-10-18T18:03:47.909Z,11.10
2022-10-18T18:06:33.974Z,11.10
2022-10-18T18:09:08.440Z,11.10
2022-10-18T18:11:39.890Z,11.10
2022-10-18T18:14:09.172Z,11.10
2022-10-18T18:16:41.849Z,11.10
2022-10-18T18:19:10.295Z,11.20
2022-10-18T18:21:38.570Z,11.20
2022-10-18T18:24:06.373Z,11.20
2022-10-18T18:26:34.897Z,11.20
2022-10-18T18:29:05.141Z,11.30
2022-10-18T18:31:37.753Z,11.20
2022-10-18T18:34:10.952Z,11.30
2022-10-18T18:36:39.032Z,11.30
2022-10-18T18:39:07.408Z,11.20
2022-10-18T18:41:35.334Z,11.30
2022-10-18T18:44:04.638Z,11.30
2022-10-18T18:46:36.947Z,11.30
2022-10-18T18:49:05.950Z,11.20
2022-10-18T18:51:34.059Z,11.10
2022-10-18T18:54:01.472Z,11.10
2022-10-18T18:56:31.999Z,11.10
2022-10-18T18:59:00.449Z,11.10
2022-10-18T19:01:31.211Z,11.10
2022-10-18T19:03:59.932Z,11.10
2022-10-18T19:06:30.349Z,11.00
2022-10-18T19:09:03.921Z,11.10
2022-10-18T19:11:35.217Z,11.00
2022-10-18T19:14:03.305Z,11.00
2022-10-18T19:16:37.410Z,11.00
2022-10-18T19:19:16.601Z,11.00
2022-10-18T19:21:46.585Z,10.90
2022-10-18T19:24:14.310Z,11.00
2022-10-18T19:26:52.040Z,10.90
2022-10-18T19:29:27.981Z,10.90
2022-10-18T19:31:58.017Z,10.90
2022-10-18T19:34:27.329Z,10.80
2022-10-18T19:36:55.226Z,10.80
2022-10-18T19:39:23.800Z,10.70
2022-10-18T19:41:53.246Z,10.70
2022-10-18T19:44:21.160Z,10.70
2022-10-18T19:46:48.844Z,10.70
2022-10-18T19:49:16.769Z,10.60
2022-10-18T19:51:44.049Z,10.60
2022-10-18T19:54:12.477Z,10.60
2022-10-18T19:56:41.823Z,10.60
2022-10-18T19:59:10.091Z,10.60
2022-10-18T20:01:38.018Z,10.60
2022-10-18T20:04:08.236Z,10.60
2022-10-18T20:06:39.063Z,10.60
2022-10-18T20:09:08.140Z,10.50
2022-10-18T20:11:35.647Z,10.50
2022-10-18T20:14:05.508Z,10.50
2022-10-18T20:16:33.937Z,10.40
2022-10-18T20:19:03.955Z,10.40
2022-10-18T20:21:36.085Z,10.30
2022-10-18T20:24:05.639Z,10.30
2022-10-18T20:26:34.625Z,10.30
2022-10-18T20:29:02.114Z,10.30
2022-10-18T20:31:32.038Z,10.40
2022-10-18T20:34:02.270Z,10.40
2022-10-18T20:36:32.021Z,10.40
2022-10-18T20:39:00.184Z,10.50
2022-10-18T20:41:30.186Z,10.40
2022-10-18T20:44:02.925Z,10.40
2022-10-18T20:46:32.091Z,10.40
2022-10-18T20:49:00.042Z,10.40
2022-10-18T20:51:28.010Z,10.40
2022-10-18T20:53:55.543Z,10.40
2022-10-18T20:56:27.235Z,10.40
2022-10-18T20:58:56.962Z,10.40
2022-10-18T21:01:27.282Z,10.50
2022-10-18T21:03:58.068Z,10.50
2022-10-18T21:06:30.572Z,10.50
2022-10-18T21:09:03.358Z,10.50
2022-10-18T21:11:31.896Z,10.60
2022-10-18T21:14:02.745Z,10.60
2022-10-18T21:16:31.638Z,10.50
2022-10-18T21:19:03.617Z,10.50
2022-10-18T21:21:31.102Z,10.50
2022-10-18T21:24:01.274Z,10.50
2022-10-18T21:26:31.429Z,10.40
2022-10-18T21:28:59.526Z,10.30
2022-10-18T21:31:29.839Z,10.30
2022-10-18T21:34:00.004Z,10.30
2022-10-18T21:36:33.939Z,10.30
2022-10-18T21:39:02.733Z,10.30
2022-10-18T21:41:31.860Z,10.30
2022-10-18T21:43:59.212Z,10.30
2022-10-18T21:46:27.243Z,10.30
2022-10-18T21:48:59.274Z,10.20
2022-10-18T21:51:28.441Z,10.30
2022-10-18T21:53:57.753Z,10.20
2022-10-18T21:56:33.637Z,10.30
2022-10-18T21:59:01.939Z,10.30
2022-10-18T22:01:33.836Z,10.30
2022-10-18T22:04:03.214Z,10.30
2022-10-18T22:09:08.478Z,10.40
2022-10-18T22:11:39.783Z,10.40
2022-10-18T22:14:07.227Z,10.40
2022-10-18T22:16:36.712Z,10.30
2022-10-18T22:19:05.645Z,10.40
2022-10-18T22:21:36.257Z,10.30
2022-10-18T22:24:08.913Z,10.20
2022-10-18T22:26:38.344Z,10.20
2022-10-18T22:29:08.438Z,10.20
2022-10-18T22:31:39.173Z,10.20
2022-10-18T22:34:09.141Z,10.10
2022-10-18T22:36:36.553Z,10.10
2022-10-18T22:39:05.600Z,10.10
2022-10-18T22:41:34.223Z,10.10
2022-10-18T22:44:03.591Z,10.00
2022-10-18T22:46:32.155Z,10.00
2022-10-18T22:48:59.829Z,10.00
2022-10-18T22:51:27.544Z,9.90
2022-10-18T22:53:54.914Z,9.90
2022-10-18T22:56:23.683Z,9.80
2022-10-18T22:58:51.095Z,9.80
2022-10-18T23:01:21.608Z,9.80
2022-10-18T23:03:57.526Z,9.80
2022-10-18T23:06:42.689Z,9.70
2022-10-18T23:09:11.718Z,9.70
2022-10-18T23:11:39.052Z,9.70
2022-10-18T23:14:07.202Z,9.70
2022-10-18T23:16:34.607Z,9.70
2022-10-18T23:19:02.170Z,9.80
2022-10-18T23:21:29.726Z,9.80
2022-10-18T23:23:58.043Z,9.70
2022-10-18T23:26:27.672Z,9.70
2022-10-18T23:28:57.995Z,9.70
2022-10-18T23:31:28.555Z,9.80
2022-10-18T23:33:57.716Z,9.80
2022-10-18T23:36:25.711Z,9.80
2022-10-18T23:38:53.704Z,9.80
2022-10-18T23:41:21.051Z,9.70
2022-10-18T23:43:48.556Z,9.70
2022-10-18T23:46:17.051Z,9.70
2022-10-18T23:48:47.015Z,9.70
2022-10-18T23:51:15.896Z,9.70
2022-10-18T23:53:43.680Z,9.80
2022-10-18T23:56:15.600Z,9.80
2022-10-18T23:58:43.711Z,9.80
